createdAt,value
2023-05-06T00:02:28.536Z,92112.31
2023-05-06T00:05:14.405Z,92121.16
2023-05-06T00:08:00.215Z,92113.75
2023-05-06T00:10:46.093Z,92116.88
2023-05-06T00:13:31.940Z,92114.41
2023-05-06T00:16:17.832Z,92110.44
2023-05-06T00:19:03.752Z,92110.56
2023-05-06T00:21:49.701Z,92118.13
2023-05-06T00:24:35.403Z,92108.69
2023-05-06T00:27:21.257Z,92118.06
2023-05-06T00:30:07.141Z,92100.22
2023-05-06T00:32:52.925Z,92111.56
2023-05-06T00:35:38.843Z,92113.81
2023-05-06T00:38:24.764Z,92114.56
2023-05-06T00:41:10.543Z,92124.75
2023-05-06T00:43:56.421Z,92112.34
2023-05-06T00:46:42.272Z,92114.69
2023-05-06T00:49:28.162Z,92109.06
2023-05-06T00:52:14.159Z,92114.72
2023-05-06T00:55:00.040Z,92129.50
2023-05-06T00:57:46.079Z,92135.53
2023-05-06T01:00:32.006Z,92116.22
2023-05-06T01:03:19.862Z,92111.69
2023-05-06T01:06:06.197Z,92118.53
2023-05-06T01:08:52.148Z,92120.38
2023-05-06T01:11:37.949Z,92120.03
2023-05-06T01:14:23.811Z,92117.00
2023-05-06T01:17:10.248Z,92111.69
2023-05-06T01:19:56.242Z,92119.25
2023-05-06T01:22:42.097Z,92117.00
2023-05-06T01:25:27.917Z,92112.06
2023-05-06T01:28:13.843Z,92109.78
2023-05-06T01:30:59.735Z,92116.22
2023-05-06T01:33:45.686Z,92111.97
2023-05-06T01:36:31.736Z,92110.94
2023-05-06T01:39:17.547Z,92117.69
2023-05-06T01:42:03.362Z,92113.88
2023-05-06T01:44:49.248Z,92102.66
2023-05-06T01:47:35.146Z,92095.84
2023-05-06T01:50:20.976Z,92090.53
2023-05-06T01:53:06.837Z,92081.03
2023-05-06T01:55:52.666Z,92082.16
2023-05-06T01:58:38.513Z,92084.03
2023-05-06T02:01:26.487Z,92089.00
2023-05-06T02:04:12.372Z,92089.78
2023-05-06T02:06:58.377Z,92098.09
2023-05-06T02:09:44.135Z,92103.75
2023-05-06T02:12:30.325Z,92095.38
2023-05-06T02:15:16.254Z,92096.47
2023-05-06T02:18:02.046Z,92096.88
2023-05-06T02:20:47.918Z,92084.38
2023-05-06T02:23:33.816Z,92107.66
2023-05-06T02:26:19.662Z,92105.41
2023-05-06T02:29:05.657Z,92114.88
2023-05-06T02:31:51.458Z,92111.56
2023-05-06T02:34:37.396Z,92109.78
2023-05-06T02:37:23.318Z,92111.72
2023-05-06T02:40:09.145Z,92108.56
2023-05-06T02:42:55.110Z,92102.50
2023-05-06T02:45:40.821Z,92101.47
2023-05-06T02:48:26.695Z,92103.00
2023-05-06T02:51:12.777Z,92100.00
2023-05-06T02:53:58.494Z,92099.22
2023-05-06T02:56:44.378Z,92099.59
2023-05-06T02:59:30.185Z,92091.94
2023-05-06T03:02:15.889Z,92085.50
2023-05-06T03:05:01.884Z,92075.97
2023-05-06T03:07:47.701Z,92072.59
2023-05-06T03:10:33.652Z,92068.03
2023-05-06T03:13:19.575Z,92072.19
2023-05-06T03:16:05.444Z,92074.41
2023-05-06T03:18:51.541Z,92078.44
2023-05-06T03:21:37.309Z,92078.19
2023-05-06T03:24:23.172Z,92076.19
2023-05-06T03:27:08.942Z,92076.34
2023-05-06T03:29:54.759Z,92067.25
2023-05-06T03:32:40.626Z,92067.25
2023-05-06T03:35:26.558Z,92065.69
2023-05-06T03:38:12.305Z,92067.94
2023-05-06T03:40:58.085Z,92064.47
2023-05-06T03:43:43.762Z,92069.66
2023-05-06T03:46:29.767Z,92071.56
2023-05-06T03:49:15.858Z,92068.06
2023-05-06T03:52:01.796Z,92068.72
2023-05-06T03:54:47.819Z,92060.03
2023-05-06T03:57:33.671Z,92068.03
2023-05-06T04:00:19.473Z,92068.53
2023-05-06T04:03:05.315Z,92068.53
2023-05-06T04:05:51.154Z,92059.50
2023-05-06T04:08:37.114Z,92066.84
2023-05-06T04:11:22.979Z,92067.44
2023-05-06T04:14:08.773Z,92056.41
2023-05-06T04:16:54.759Z,92057.91
2023-05-06T04:19:40.514Z,92056.88
2023-05-06T04:22:26.421Z,92064.22
2023-05-06T04:25:12.662Z,92064.63
2023-05-06T04:27:58.993Z,92057.25
2023-05-06T04:30:44.929Z,92053.09
2023-05-06T04:33:30.825Z,92068.19
2023-05-06T04:36:16.666Z,92064.88
2023-05-06T04:39:02.491Z,92065.03
2023-05-06T04:41:48.318Z,92069.66
2023-05-06T04:44:34.148Z,92074.59
2023-05-06T04:47:19.976Z,92075.25
2023-05-06T04:50:05.780Z,92077.41
2023-05-06T04:52:51.706Z,92083.28
2023-05-06T04:55:37.636Z,92087.13
2023-05-06T04:58:23.494Z,92083.31
2023-05-06T05:01:09.504Z,92102.53
2023-05-06T05:03:55.291Z,92095.88
2023-05-06T05:06:41.149Z,92095.19
2023-05-06T05:09:26.853Z,92097.06
2023-05-06T05:12:12.818Z,92088.75
2023-05-06T05:14:58.828Z,92090.25
2023-05-06T05:17:44.812Z,92078.16
2023-05-06T05:20:30.687Z,92076.00
2023-05-06T05:23:16.606Z,92088.94
2023-05-06T05:26:02.501Z,92098.09
2023-05-06T05:28:48.462Z,92094.72
2023-05-06T05:31:34.340Z,92089.78
2023-05-06T05:34:20.162Z,92084.16
2023-05-06T05:37:05.976Z,92087.91
2023-05-06T05:39:51.781Z,92090.56
2023-05-06T05:42:37.505Z,92099.56
2023-05-06T05:45:23.454Z,92090.03
2023-05-06T05:48:10.229Z,92088.59
2023-05-06T05:50:56.172Z,92091.63
2023-05-06T05:53:42.025Z,92087.09
2023-05-06T05:56:27.874Z,92084.09
2023-05-06T05:59:13.736Z,92086.72
2023-05-06T06:01:59.473Z,92092.03
2023-05-06T06:04:45.308Z,92095.78
2023-05-06T06:07:31.168Z,92097.97
2023-05-06T06:10:17.022Z,92095.75
2023-05-06T06:13:03.068Z,92090.34
2023-05-06T06:15:49.201Z,92092.66
2023-05-06T06:18:37.124Z,92093.78
2023-05-06T06:21:22.973Z,92100.16
2023-05-06T06:24:08.752Z,92097.13
2023-05-06T06:26:54.610Z,92098.22
2023-05-06T06:29:40.563Z,92102.44
2023-05-06T06:32:26.421Z,92100.09
2023-05-06T06:35:12.413Z,92100.78
2023-05-06T06:37:58.092Z,92089.00
2023-05-06T06:40:44.024Z,92098.09
2023-05-06T06:43:30.007Z,92098.19
2023-05-06T06:46:16.048Z,92092.38
2023-05-06T06:49:01.993Z,92102.06
2023-05-06T06:51:47.838Z,92095.13
2023-05-06T06:54:33.658Z,92100.94
2023-05-06T06:57:19.583Z,92108.97
2023-05-06T07:00:05.435Z,92107.03
2023-05-06T07:02:51.376Z,92107.25
2023-05-06T07:05:37.316Z,92109.66
2023-05-06T07:08:23.116Z,92101.34
2023-05-06T07:11:09.098Z,92101.16
2023-05-06T07:13:54.942Z,92104.97
2023-05-06T07:16:40.821Z,92107.28
2023-05-06T07:19:26.924Z,92107.72
2023-05-06T07:22:12.802Z,92109.72
2023-05-06T07:24:58.642Z,92107.47
2023-05-06T07:27:44.631Z,92119.00
2023-05-06T07:30:30.452Z,92104.84
2023-05-06T07:33:16.256Z,92113.09
2023-05-06T07:36:01.967Z,92104.28
2023-05-06T07:38:47.963Z,92113.09
2023-05-06T07:41:33.943Z,92120.50
2023-05-06T07:44:19.791Z,92110.84
2023-05-06T07:47:05.897Z,92106.47
2023-05-06T07:49:52.150Z,92113.41
2023-05-06T07:52:38.098Z,92110.66
2023-05-06T07:55:24.034Z,92111.28
2023-05-06T07:58:09.816Z,92111.78
2023-05-06T08:00:55.722Z,92104.88
2023-05-06T08:03:41.850Z,92106.03
2023-05-06T08:06:28.085Z,92112.78
2023-05-06T08:09:22.260Z,92109.56
2023-05-06T08:12:08.994Z,92106.47
2023-05-06T08:14:54.827Z,92104.72
2023-05-06T08:17:40.783Z,92091.81
2023-05-06T08:20:26.692Z,92092.22
2023-05-06T08:23:12.637Z,92098.72
2023-05-06T08:25:58.442Z,92092.69
2023-05-06T08:28:45.785Z,92091.94
2023-05-06T08:31:31.736Z,92093.84
2023-05-06T08:34:17.730Z,92096.63
2023-05-06T08:37:03.556Z,92092.75
2023-05-06T08:39:49.853Z,92095.00
2023-05-06T08:42:35.785Z,92086.78
2023-05-06T08:45:21.787Z,92093.25
2023-05-06T08:48:07.647Z,92087.88
2023-05-06T08:50:53.581Z,92087.44
2023-05-06T08:53:39.369Z,92085.75
2023-05-06T08:56:25.200Z,92086.81
2023-05-06T08:59:11.075Z,92083.56
2023-05-06T09:01:56.865Z,92087.03
2023-05-06T09:04:42.748Z,92081.81
2023-05-06T09:07:28.585Z,92089.03
2023-05-06T09:10:14.510Z,92091.28
2023-05-06T09:13:00.569Z,92096.03
2023-05-06T09:15:46.691Z,92086.97
2023-05-06T09:18:32.650Z,92084.09
2023-05-06T09:21:18.501Z,92090.81
2023-05-06T09:24:04.412Z,92085.88
2023-05-06T09:26:50.366Z,92093.91
2023-05-06T09:29:36.152Z,92083.13
2023-05-06T09:32:22.118Z,92080.09
2023-05-06T09:35:08.185Z,92079.72
2023-05-06T09:37:54.161Z,92081.97
2023-05-06T09:40:40.183Z,92066.31
2023-05-06T09:43:26.091Z,92063.28
2023-05-06T09:46:11.951Z,92069.63
2023-05-06T09:48:57.820Z,92066.34
2023-05-06T09:51:43.723Z,92058.00
2023-05-06T09:54:29.592Z,92068.19
2023-05-06T09:57:15.575Z,92062.53
2023-05-06T10:00:01.443Z,92068.53
2023-05-06T10:02:47.443Z,92060.97
2023-05-06T10:05:33.360Z,92064.47
2023-05-06T10:08:19.289Z,92057.81
2023-05-06T10:11:05.303Z,92057.13
2023-05-06T10:13:51.178Z,92052.78
2023-05-06T10:16:37.235Z,92050.38
2023-05-06T10:19:23.570Z,92046.19
2023-05-06T10:22:09.278Z,92043.81
2023-05-06T10:24:55.057Z,92045.06
2023-05-06T10:27:41.011Z,92042.47
2023-05-06T10:30:27.299Z,92042.66
2023-05-06T10:33:13.163Z,92040.81
2023-05-06T10:35:58.961Z,92039.31
2023-05-06T10:38:44.852Z,92038.47
2023-05-06T10:41:31.000Z,92036.53
2023-05-06T10:44:17.041Z,92034.38
2023-05-06T10:47:03.028Z,92032.97
2023-05-06T10:49:48.840Z,92030.19
2023-05-06T10:52:34.678Z,92022.88
2023-05-06T10:55:20.472Z,92017.84
2023-05-06T10:58:06.184Z,92019.56
2023-05-06T11:00:52.130Z,92024.00
2023-05-06T11:03:38.134Z,92023.88
2023-05-06T11:06:23.872Z,92013.28
2023-05-06T11:09:09.840Z,92015.72
2023-05-06T11:11:55.694Z,92007.28
2023-05-06T11:14:41.517Z,92009.63
2023-05-06T11:17:27.575Z,92004.41
2023-05-06T11:20:13.630Z,91997.91
2023-05-06T11:22:59.598Z,91995.91
2023-05-06T11:25:45.488Z,91995.03
2023-05-06T11:28:31.184Z,92000.19
2023-05-06T11:31:17.111Z,91996.53
2023-05-06T11:34:02.988Z,91991.81
2023-05-06T11:36:48.833Z,91985.88
2023-05-06T11:39:39.976Z,91989.41
2023-05-06T11:42:27.160Z,91982.31
2023-05-06T11:45:12.982Z,91987.91
2023-05-06T11:47:59.002Z,91994.88
2023-05-06T11:50:45.044Z,91994.47
2023-05-06T11:53:30.824Z,91996.28
2023-05-06T11:56:16.552Z,91990.28
2023-05-06T11:59:02.443Z,91990.78
2023-05-06T12:01:48.364Z,91985.03
2023-05-06T12:04:36.192Z,91978.50
2023-05-06T12:07:22.144Z,91983.78
2023-05-06T12:10:08.024Z,91978.88
2023-05-06T12:12:54.364Z,91993.16
2023-05-06T12:15:40.099Z,91987.56
2023-05-06T12:18:25.962Z,91979.59
2023-05-06T12:21:11.874Z,91978.16
2023-05-06T12:23:57.749Z,91972.56
2023-05-06T12:26:43.871Z,91971.44
2023-05-06T12:29:29.625Z,91972.78
2023-05-06T12:32:15.456Z,91967.25
2023-05-06T12:35:01.347Z,91966.31
2023-05-06T12:37:47.184Z,91971.59
2023-05-06T12:43:18.944Z,91973.34
2023-05-06T12:46:04.790Z,91966.66
2023-05-06T12:48:50.792Z,91974.09
2023-05-06T12:51:36.637Z,91981.63
2023-05-06T12:54:22.610Z,91979.78
2023-05-06T12:57:08.406Z,91975.97
2023-05-06T12:59:54.290Z,91972.28
2023-05-06T13:02:40.219Z,91966.53
2023-05-06T13:05:26.461Z,91957.91
2023-05-06T13:08:12.485Z,91959.44
2023-05-06T13:10:58.482Z,91954.44
2023-05-06T13:13:44.389Z,91957.38
2023-05-06T13:16:30.411Z,91953.91
2023-05-06T13:22:05.007Z,91954.84
2023-05-06T13:24:50.919Z,91959.97
2023-05-06T13:27:36.709Z,91958.34
2023-05-06T13:30:22.498Z,91958.50
2023-05-06T13:33:08.360Z,91950.56
2023-05-06T13:35:54.297Z,91946.50
2023-05-06T13:38:40.202Z,91955.44
2023-05-06T13:41:26.225Z,91951.25
2023-05-06T13:44:11.968Z,91948.09
2023-05-06T13:46:58.020Z,91937.06
2023-05-06T13:49:44.138Z,91927.66
2023-05-06T13:52:29.965Z,91931.28
2023-05-06T13:55:17.362Z,91922.41
2023-05-06T13:58:04.714Z,91909.81
2023-05-06T14:00:50.679Z,91918.25
2023-05-06T14:03:36.604Z,91929.03
2023-05-06T14:06:22.360Z,91922.31
2023-05-06T14:09:08.239Z,91929.47
2023-05-06T14:11:54.209Z,91928.53
2023-05-06T14:14:40.063Z,91942.00
2023-05-06T14:17:26.082Z,91936.06
2023-05-06T14:20:12.020Z,91935.13
2023-05-06T14:22:58.182Z,91944.38
2023-05-06T14:25:44.225Z,91935.00
2023-05-06T14:28:30.227Z,91938.09
2023-05-06T14:31:16.166Z,91933.75
2023-05-06T14:34:01.964Z,91935.13
2023-05-06T14:36:47.855Z,91939.13
2023-05-06T14:39:33.969Z,91931.63
2023-05-06T14:42:19.847Z,91933.38
2023-05-06T14:45:05.717Z,91938.03
2023-05-06T14:47:51.604Z,91927.97
2023-05-06T14:50:37.524Z,91926.75
2023-05-06T14:53:23.493Z,91923.13
2023-05-06T14:56:09.337Z,91924.22
2023-05-06T14:58:55.077Z,91934.41
2023-05-06T15:01:40.926Z,91951.75
2023-05-06T15:04:26.786Z,91960.41
2023-05-06T15:07:12.722Z,91965.94
2023-05-06T15:09:58.662Z,91973.25
2023-05-06T15:12:44.447Z,91983.00
2023-05-06T15:15:30.506Z,91979.69
2023-05-06T15:18:16.512Z,91965.38
2023-05-06T15:21:02.321Z,91955.44
2023-05-06T15:23:48.370Z,91950.47
2023-05-06T15:26:34.230Z,91964.25
2023-05-06T15:29:20.111Z,91956.38
2023-05-06T15:32:06.199Z,91944.31
2023-05-06T15:34:52.313Z,91946.25
2023-05-06T15:37:38.338Z,91937.81
2023-05-06T15:40:24.211Z,91929.09
2023-05-06T15:43:11.148Z,91921.25
2023-05-06T15:46:00.165Z,91912.16
2023-05-06T15:48:46.223Z,91917.00
2023-05-06T15:51:31.973Z,91917.97
2023-05-06T15:54:17.981Z,91924.75
2023-05-06T15:57:05.098Z,91924.09
2023-05-06T15:59:52.665Z,91912.13
2023-05-06T16:02:39.011Z,91904.94
2023-05-06T16:05:25.433Z,91901.44
2023-05-06T16:08:11.300Z,91898.84
2023-05-06T16:10:57.171Z,91897.44
2023-05-06T16:13:42.954Z,91892.03
2023-05-06T16:16:28.843Z,91902.81
2023-05-06T16:19:14.714Z,91900.38
2023-05-06T16:22:00.563Z,91903.81
2023-05-06T16:24:46.533Z,91901.97
2023-05-06T16:27:32.353Z,91893.84
2023-05-06T16:30:18.211Z,91887.34
2023-05-06T16:33:04.329Z,91887.66
2023-05-06T16:35:50.135Z,91877.56
2023-05-06T16:38:36.026Z,91881.72
2023-05-06T16:41:21.974Z,91886.66
2023-05-06T16:44:07.713Z,91881.91
2023-05-06T16:46:53.642Z,91887.72
2023-05-06T16:49:39.612Z,91887.91
2023-05-06T16:52:25.551Z,91895.53
2023-05-06T16:55:11.425Z,91897.13
2023-05-06T16:57:57.140Z,91891.25
2023-05-06T17:00:43.102Z,91900.03
2023-05-06T17:03:29.482Z,91895.56
2023-05-06T17:06:15.437Z,91884.94
2023-05-06T17:09:01.412Z,91887.06
2023-05-06T17:11:47.141Z,91879.53
2023-05-06T17:14:33.176Z,91883.75
2023-05-06T17:17:20.889Z,91883.47
2023-05-06T17:20:07.553Z,91882.47
2023-05-06T17:22:53.458Z,91883.38
2023-05-06T17:25:39.336Z,91881.94
2023-05-06T17:28:25.127Z,91884.88
2023-05-06T17:31:11.015Z,91883.38
2023-05-06T17:33:56.937Z,91890.00
2023-05-06T17:36:42.827Z,91881.06
2023-05-06T17:39:28.822Z,91878.09
2023-05-06T17:42:15.032Z,91883.16
2023-05-06T17:45:01.056Z,91885.81
2023-05-06T17:47:47.078Z,91883.78
2023-05-06T17:50:33.280Z,91883.28
2023-05-06T17:53:19.154Z,91882.53
2023-05-06T17:56:05.011Z,91883.66
2023-05-06T17:58:50.940Z,91885.56
2023-05-06T18:01:36.782Z,91881.88
2023-05-06T18:04:22.709Z,91878.44
2023-05-06T18:07:08.747Z,91883.34
2023-05-06T18:09:54.670Z,91877.50
2023-05-06T18:12:40.641Z,91879.22
2023-05-06T18:15:26.530Z,91885.25
2023-05-06T18:18:12.451Z,91886.97
2023-05-06T18:21:00.177Z,91889.38
2023-05-06T18:23:46.125Z,91898.00
2023-05-06T18:26:43.857Z,91900.72
2023-05-06T18:29:31.012Z,91900.38
2023-05-06T18:32:17.061Z,91903.50
2023-05-06T18:35:02.911Z,91900.38
2023-05-06T18:37:48.814Z,91902.78
2023-05-06T18:40:34.654Z,91911.34
2023-05-06T18:43:20.502Z,91905.84
2023-05-06T18:46:06.556Z,91902.28
2023-05-06T18:48:52.391Z,91908.63
2023-05-06T18:51:38.367Z,91908.22
2023-05-06T18:54:24.334Z,91914.28
2023-05-06T18:57:10.163Z,91916.41
2023-05-06T18:59:56.058Z,91916.88
2023-05-06T19:02:41.906Z,91910.63
2023-05-06T19:05:27.807Z,91910.63
2023-05-06T19:08:13.743Z,91908.34
2023-05-06T19:11:01.604Z,91913.44
2023-05-06T19:13:47.512Z,91916.13
2023-05-06T19:16:33.620Z,91921.38
2023-05-06T19:19:19.583Z,91918.41
2023-05-06T19:22:05.550Z,91912.84
2023-05-06T19:24:51.431Z,91913.13
2023-05-06T19:27:37.318Z,91915.38
2023-05-06T19:30:23.203Z,91909.75
2023-05-06T19:33:09.093Z,91924.53
2023-05-06T19:35:54.996Z,91926.31
2023-05-06T19:38:40.831Z,91931.63
2023-05-06T19:41:26.628Z,91930.09
2023-05-06T19:44:12.692Z,91924.84
2023-05-06T19:46:58.822Z,91932.09
2023-05-06T19:49:44.833Z,91930.56
2023-05-06T19:52:30.935Z,91930.91
2023-05-06T19:55:16.675Z,91927.94
2023-05-06T19:58:02.589Z,91924.16
2023-05-06T20:00:48.565Z,91920.44
2023-05-06T20:03:34.584Z,91918.94
2023-05-06T20:06:20.808Z,91924.22
2023-05-06T20:09:06.737Z,91928.00
2023-05-06T20:11:52.648Z,91929.88
2023-05-06T20:14:38.571Z,91934.03
2023-05-06T20:17:24.406Z,91926.06
2023-05-06T20:20:10.393Z,91925.31
2023-05-06T20:22:56.147Z,91928.75
2023-05-06T20:25:42.033Z,91930.34
2023-05-06T20:28:27.900Z,91935.66
2023-05-06T20:31:13.710Z,91937.56
2023-05-06T20:33:59.592Z,91929.66
2023-05-06T20:36:45.376Z,91929.66
2023-05-06T20:39:31.186Z,91925.84
2023-05-06T20:42:16.957Z,91934.91
2023-05-06T20:45:02.828Z,91931.13
2023-05-06T20:47:48.645Z,91933.75
2023-05-06T20:50:34.605Z,91930.41
2023-05-06T20:53:20.434Z,91934.53
2023-05-06T20:56:06.282Z,91931.88
2023-05-06T20:58:52.099Z,91930.34
2023-05-06T21:01:38.005Z,91931.44
2023-05-06T21:04:23.908Z,91932.59
2023-05-06T21:07:09.640Z,91940.19
2023-05-06T21:09:55.616Z,91937.88
2023-05-06T21:12:41.537Z,91934.88
2023-05-06T21:15:27.399Z,91940.94
2023-05-06T21:18:13.557Z,91935.28
2023-05-06T21:20:59.583Z,91938.69
2023-05-06T21:23:45.476Z,91947.81
2023-05-06T21:26:31.565Z,91938.34
2023-05-06T21:29:17.456Z,91941.78
2023-05-06T21:32:03.447Z,91948.16
2023-05-06T21:34:49.377Z,91944.75
2023-05-06T21:37:35.182Z,91941.38
2023-05-06T21:40:21.240Z,91952.34
2023-05-06T21:43:07.035Z,91943.66
2023-05-06T21:45:53.050Z,91947.81
2023-05-06T21:48:39.277Z,91948.19
2023-05-06T21:51:25.084Z,91939.13
2023-05-06T21:54:11.030Z,91947.00
2023-05-06T21:56:56.870Z,91941.72
2023-05-06T21:59:42.709Z,91934.16
2023-05-06T22:02:28.803Z,91940.91
2023-05-06T22:05:14.865Z,91944.75
2023-05-06T22:08:00.764Z,91939.81
2023-05-06T22:10:46.787Z,91935.63
2023-05-06T22:13:32.597Z,91933.78
2023-05-06T22:16:18.532Z,91938.66
2023-05-06T22:19:05.080Z,91929.66
2023-05-06T22:21:53.513Z,91943.63
2023-05-06T22:24:39.506Z,91945.53
2023-05-06T22:27:25.492Z,91939.50
2023-05-06T22:30:11.334Z,91938.34
2023-05-06T22:32:57.283Z,91941.75
2023-05-06T22:35:43.166Z,91935.34
2023-05-06T22:38:29.101Z,91938.00
2023-05-06T22:41:16.123Z,91938.34
2023-05-06T22:44:03.874Z,91935.34
2023-05-06T22:46:49.755Z,91938.38
2023-05-06T22:49:35.725Z,91939.47
2023-05-06T22:52:21.304Z,91936.84
2023-05-06T22:55:09.458Z,91935.72
2023-05-06T22:57:55.654Z,91937.25
2023-05-06T23:04:16.358Z,91935.47
2023-05-06T23:07:02.342Z,91935.50
2023-05-06T23:09:48.043Z,91934.28
2023-05-06T23:12:34.007Z,91929.34
2023-05-06T23:15:19.825Z,91927.03
2023-05-06T23:18:05.618Z,91928.88
2023-05-06T23:20:51.503Z,91930.91
2023-05-06T23:23:37.321Z,91927.19
2023-05-06T23:26:25.128Z,91929.75
2023-05-06T23:29:11.028Z,91928.47
2023-05-06T23:31:56.861Z,91928.41
2023-05-06T23:34:42.900Z,91929.16
2023-05-06T23:37:28.956Z,91933.94
2023-05-06T23:40:14.712Z,91930.81
2023-05-06T23:43:00.610Z,91933.28
2023-05-06T23:45:46.468Z,91937.34
2023-05-06T23:48:32.280Z,91931.38
2023-05-06T23:51:18.197Z,91929.94
2023-05-06T23:54:03.938Z,91931.81
2023-05-06T23:56:49.816Z,91919.84
2023-05-06T23:59:35.803Z,91928.38
